createdAt,value
2019-04-06T00:01:01.237Z,99.90
2019-04-06T00:03:31.663Z,99.90
2019-04-06T00:06:02.078Z,99.90
2019-04-06T00:08:32.657Z,99.90
2019-04-06T00:11:03.134Z,99.90
2019-04-06T00:13:33.858Z,99.90
2019-04-06T00:16:04.294Z,99.90
2019-04-06T00:18:34.716Z,99.90
2019-04-06T00:21:05.203Z,99.90
2019-04-06T00:23:35.691Z,99.90
2019-04-06T00:26:06.080Z,99.90
2019-04-06T00:28:36.523Z,99.90
2019-04-06T00:31:24.927Z,99.90
2019-04-06T00:33:55.363Z,99.90
2019-04-06T00:36:25.803Z,99.90
2019-04-06T00:38:56.268Z,99.90
2019-04-06T00:41:26.674Z,99.90
2019-04-06T00:43:57.129Z,99.90
2019-04-06T00:46:27.557Z,99.90
2019-04-06T00:48:57.982Z,99.90
2019-04-06T00:51:28.402Z,99.90
2019-04-06T00:53:58.842Z,99.90
2019-04-06T00:56:29.329Z,99.90
2019-04-06T00:59:00.261Z,99.90
2019-04-06T01:01:30.722Z,99.90
2019-04-06T01:04:01.187Z,99.90
2019-04-06T01:06:31.662Z,99.90
2019-04-06T01:09:02.108Z,99.90
2019-04-06T01:11:32.603Z,99.90
2019-04-06T01:14:03.054Z,99.90
2019-04-06T01:16:33.456Z,99.90
2019-04-06T01:19:06.659Z,99.90
2019-04-06T01:21:36.420Z,99.90
2019-04-06T01:24:06.867Z,99.90
2019-04-06T01:26:37.410Z,99.90
2019-04-06T01:29:07.835Z,99.90
2019-04-06T01:31:38.276Z,99.90
2019-04-06T01:34:08.721Z,99.90
2019-04-06T01:36:39.142Z,99.90
2019-04-06T01:39:09.609Z,99.90
2019-04-06T01:41:40.055Z,99.90
2019-04-06T01:44:10.509Z,99.90
2019-04-06T01:46:40.951Z,99.90
2019-04-06T01:49:11.398Z,99.90
2019-04-06T01:51:41.880Z,99.90
2019-04-06T01:54:12.313Z,99.90
2019-04-06T01:56:42.743Z,99.90
2019-04-06T01:59:13.173Z,99.90
2019-04-06T02:02:05.709Z,99.90
2019-04-06T02:04:36.145Z,99.90
2019-04-06T02:07:06.749Z,99.90
2019-04-06T02:09:37.165Z,99.90
2019-04-06T02:12:07.605Z,99.90
2019-04-06T02:14:38.070Z,99.90
2019-04-06T02:17:08.470Z,99.90
2019-04-06T02:19:38.889Z,99.90
2019-04-06T02:22:09.334Z,99.90
2019-04-06T02:24:39.735Z,99.90
2019-04-06T02:27:10.185Z,99.90
2019-04-06T02:29:40.645Z,99.90
2019-04-06T02:32:30.071Z,99.90
2019-04-06T02:35:22.043Z,99.90
2019-04-06T02:38:20.409Z,99.90
2019-04-06T02:41:00.173Z,99.90
2019-04-06T02:43:32.523Z,99.90
2019-04-06T02:46:03.022Z,99.90
2019-04-06T02:48:33.734Z,99.90
2019-04-06T02:51:04.209Z,99.90
2019-04-06T02:53:34.654Z,99.90
2019-04-06T02:56:05.110Z,99.90
2019-04-06T02:58:35.747Z,99.90
2019-04-06T03:01:06.186Z,99.90
2019-04-06T03:03:36.641Z,99.90
2019-04-06T03:06:07.194Z,99.90
2019-04-06T03:08:37.667Z,99.90
2019-04-06T03:11:08.120Z,99.90
2019-04-06T03:13:38.872Z,99.90
2019-04-06T03:16:09.633Z,99.90
2019-04-06T03:18:39.982Z,99.90
2019-04-06T03:21:10.408Z,99.90
2019-04-06T03:23:50.753Z,99.90
2019-04-06T03:26:12.986Z,99.90
2019-04-06T03:28:43.390Z,99.90
2019-04-06T03:31:13.830Z,99.90
2019-04-06T03:33:44.291Z,99.90
2019-04-06T03:36:14.781Z,99.90
2019-04-06T03:38:45.211Z,99.90
2019-04-06T03:41:15.637Z,99.90
2019-04-06T03:43:46.111Z,99.90
2019-04-06T03:46:16.560Z,99.90
2019-04-06T03:48:46.984Z,99.90
2019-04-06T03:51:17.557Z,99.90
2019-04-06T03:53:47.929Z,99.90
2019-04-06T03:56:18.445Z,99.90
2019-04-06T03:58:51.900Z,99.90
2019-04-06T04:01:21.029Z,99.90
2019-04-06T04:03:51.482Z,99.90
2019-04-06T04:06:21.908Z,99.90
2019-04-06T04:08:52.339Z,99.90
2019-04-06T04:11:22.792Z,99.90
2019-04-06T04:13:53.844Z,99.90
2019-04-06T04:16:24.434Z,99.90
2019-04-06T04:18:54.904Z,99.90
2019-04-06T04:21:25.339Z,99.90
2019-04-06T04:23:55.810Z,99.90
2019-04-06T04:26:26.238Z,99.90
2019-04-06T04:28:57.099Z,99.90
2019-04-06T04:31:27.508Z,99.90
2019-04-06T04:33:58.022Z,99.90
2019-04-06T04:36:28.421Z,99.90
2019-04-06T04:38:58.880Z,99.90
2019-04-06T04:41:29.661Z,99.90
2019-04-06T04:44:00.170Z,99.90
2019-04-06T04:46:30.733Z,99.90
2019-04-06T04:49:01.194Z,99.90
2019-04-06T04:51:31.649Z,99.90
2019-04-06T04:54:02.114Z,99.90
2019-04-06T04:56:32.609Z,99.90
2019-04-06T04:59:03.053Z,99.90
2019-04-06T05:01:33.568Z,99.90
2019-04-06T05:04:04.126Z,99.90
2019-04-06T05:06:34.704Z,99.90
2019-04-06T05:09:07.140Z,99.90
2019-04-06T05:11:37.592Z,99.90
2019-04-06T05:15:03.917Z,99.90
2019-04-06T05:17:35.082Z,99.90
2019-04-06T05:20:07.016Z,99.90
2019-04-06T05:22:37.466Z,99.90
2019-04-06T05:25:08.799Z,99.90
2019-04-06T05:27:50.810Z,99.90
2019-04-06T05:30:11.847Z,99.90
2019-04-06T05:32:42.263Z,99.90
2019-04-06T05:35:12.819Z,99.90
2019-04-06T05:37:43.265Z,99.90
2019-04-06T05:40:13.730Z,99.90
2019-04-06T05:42:44.128Z,99.90
2019-04-06T05:45:14.586Z,99.90
2019-04-06T05:47:45.031Z,99.90
2019-04-06T05:50:15.694Z,99.90
2019-04-06T05:52:46.108Z,99.90
2019-04-06T05:55:16.576Z,99.90
2019-04-06T05:57:47.034Z,99.90
2019-04-06T06:00:17.584Z,99.90
2019-04-06T06:03:34.467Z,99.90
2019-04-06T06:07:05.857Z,99.90
2019-04-06T06:09:41.409Z,99.90
2019-04-06T06:12:24.779Z,99.90
2019-04-06T06:14:56.897Z,99.90
2019-04-06T06:17:38.483Z,99.90
2019-04-06T06:20:33.850Z,99.90
2019-04-06T06:23:08.118Z,99.90
2019-04-06T08:23:35.475Z,99.90
2019-04-06T08:26:06.204Z,99.90
2019-04-06T08:28:36.614Z,99.90
2019-04-06T08:31:07.034Z,99.90
2019-04-06T08:33:37.537Z,99.90
2019-04-06T08:36:07.973Z,99.90
2019-04-06T08:38:38.429Z,99.90
2019-04-06T08:41:08.864Z,99.90
2019-04-06T08:43:39.349Z,99.90
2019-04-06T08:46:10.043Z,99.90
2019-04-06T08:48:40.453Z,99.90
2019-04-06T08:51:11.214Z,99.90
2019-04-06T08:53:41.657Z,99.90
2019-04-06T08:56:12.126Z,99.90
2019-04-06T08:58:42.570Z,99.90
2019-04-06T09:01:13.039Z,99.90
2019-04-06T09:03:44.680Z,99.90
2019-04-06T09:06:15.249Z,99.90
2019-04-06T09:08:45.662Z,99.90
2019-04-06T09:11:16.111Z,99.90
2019-04-06T09:13:46.571Z,99.90
2019-04-06T09:16:17.036Z,99.90
2019-04-06T09:18:49.135Z,99.90
2019-04-06T09:21:22.070Z,99.90
2019-04-06T09:23:52.173Z,99.90
2019-04-06T09:26:22.660Z,99.90
2019-04-06T09:28:53.165Z,99.90
2019-04-06T09:31:23.677Z,99.90
2019-04-06T09:33:54.045Z,99.90
2019-04-06T09:36:24.491Z,99.90
2019-04-06T09:38:54.983Z,99.90
2019-04-06T09:41:26.522Z,99.90
2019-04-06T09:43:57.264Z,99.90
2019-04-06T09:46:58.680Z,99.90
2019-04-06T09:49:48.137Z,99.90
2019-04-06T09:52:28.459Z,99.90
2019-04-06T09:55:16.304Z,99.90
2019-04-06T09:58:24.032Z,99.90
2019-04-06T10:01:10.615Z,99.90
2019-04-06T10:03:52.215Z,99.90
2019-04-06T10:06:53.483Z,99.90
2019-04-06T10:09:51.547Z,99.90
2019-04-06T10:12:52.985Z,99.90
2019-04-06T10:15:39.499Z,99.90
2019-04-06T10:18:20.576Z,99.90
2019-04-06T10:21:16.369Z,99.90
2019-04-06T10:24:21.270Z,99.90
2019-04-06T10:27:09.699Z,99.90
2019-04-06T10:30:14.627Z,99.90
2019-04-06T10:33:04.371Z,99.90
2019-04-06T10:35:56.937Z,99.90
2019-04-06T10:38:46.269Z,99.90
2019-04-06T10:41:35.670Z,99.90
2019-04-06T10:44:24.373Z,99.90
2019-04-06T10:47:03.859Z,99.90
2019-04-06T10:49:53.524Z,99.90
2019-04-06T10:52:42.001Z,99.90
2019-04-06T10:55:43.775Z,99.90
2019-04-06T10:58:37.593Z,99.90
2019-04-06T11:01:26.391Z,99.90
2019-04-06T11:04:10.882Z,99.90
2019-04-06T11:07:14.990Z,99.90
2019-04-06T11:09:55.995Z,99.90
2019-04-06T11:12:42.959Z,99.90
2019-04-06T11:15:41.321Z,99.90
2019-04-06T11:18:37.366Z,99.90
2019-04-06T11:21:26.680Z,99.90
2019-04-06T11:24:25.026Z,99.90
2019-04-06T11:27:17.395Z,99.90
2019-04-06T11:30:13.222Z,99.90
2019-04-06T11:32:53.806Z,99.80
2019-04-06T11:35:33.575Z,99.90
2019-04-06T11:38:21.526Z,99.90
2019-04-06T11:41:09.913Z,99.70
2019-04-06T11:44:05.286Z,99.40
2019-04-06T11:47:00.720Z,99.50
2019-04-06T11:49:39.682Z,99.40
2019-04-06T11:52:30.309Z,99.40
2019-04-06T11:55:28.804Z,99.60
2019-04-06T11:58:17.015Z,99.70
2019-04-06T12:01:15.416Z,99.90
2019-04-06T12:04:02.879Z,99.40
2019-04-06T12:06:44.429Z,98.90
2019-04-06T12:09:34.174Z,99.20
2019-04-06T12:12:26.953Z,98.40
2019-04-06T12:15:08.776Z,98.50
2019-04-06T12:17:57.165Z,98.30
2019-04-06T12:20:35.104Z,98.60
2019-04-06T12:23:23.115Z,98.30
2019-04-06T12:26:15.410Z,98.30
2019-04-06T12:28:58.291Z,98.30
2019-04-06T12:31:44.958Z,98.10
2019-04-06T12:34:34.362Z,98.10
2019-04-06T12:37:35.767Z,97.70
2019-04-06T12:40:37.883Z,97.70
2019-04-06T12:43:45.400Z,96.90
2019-04-06T12:46:46.622Z,97.40
2019-04-06T12:49:32.329Z,97.30
2019-04-06T12:52:24.803Z,97.40
2019-04-06T12:55:14.200Z,97.50
2019-04-06T12:58:02.097Z,97.30
2019-04-06T13:00:53.318Z,97.10
2019-04-06T13:03:49.963Z,97.10
2019-04-06T13:06:37.013Z,97.50
2019-04-06T13:09:23.144Z,97.30
2019-04-06T13:12:24.961Z,96.50
2019-04-06T13:15:03.175Z,96.80
2019-04-06T13:17:46.809Z,96.40
2019-04-06T13:20:51.259Z,96.60
2019-04-06T13:23:58.638Z,96.30
2019-04-06T13:26:54.048Z,96.00
2019-04-06T13:29:46.483Z,95.80
2019-04-06T13:32:35.666Z,95.10
2019-04-06T13:35:28.103Z,95.30
2019-04-06T13:38:09.594Z,95.50
2019-04-06T13:41:07.836Z,95.90
2019-04-06T13:43:55.678Z,96.30
2019-04-06T13:46:43.759Z,95.70
2019-04-06T13:49:29.139Z,95.60
2019-04-06T13:52:06.223Z,95.60
2019-04-06T13:54:46.535Z,95.20
2019-04-06T13:57:34.746Z,94.30
2019-04-06T14:00:26.727Z,94.10
2019-04-06T14:03:33.743Z,94.20
2019-04-06T14:06:31.903Z,94.10
2019-04-06T14:09:31.164Z,94.80
2019-04-06T14:12:14.194Z,94.90
2019-04-06T14:15:00.449Z,94.70
2019-04-06T14:17:48.046Z,94.40
2019-04-06T14:20:36.259Z,94.20
2019-04-06T14:23:28.661Z,93.90
2019-04-06T14:26:29.850Z,93.60
2019-04-06T14:29:15.971Z,94.10
2019-04-06T14:32:01.860Z,94.50
2019-04-06T14:35:03.510Z,94.00
2019-04-06T14:37:51.491Z,93.70
2019-04-06T14:40:32.359Z,93.70
2019-04-06T14:43:23.226Z,93.40
2019-04-06T14:46:10.219Z,93.50
2019-04-06T14:48:50.219Z,93.20
2019-04-06T14:51:30.208Z,92.90
2019-04-06T14:54:07.994Z,93.30
2019-04-06T14:56:57.378Z,93.40
2019-04-06T14:59:46.779Z,93.30
2019-04-06T15:02:36.087Z,93.20
2019-04-06T15:05:26.504Z,93.10
2019-04-06T15:08:12.343Z,93.40
2019-04-06T15:11:01.979Z,93.90
2019-04-06T15:13:49.881Z,93.50
2019-04-06T15:16:42.350Z,93.10
2019-04-06T15:19:22.662Z,93.30
2019-04-06T15:22:16.956Z,93.40
2019-04-06T15:25:03.638Z,93.50
2019-04-06T15:27:52.049Z,92.90
2019-04-06T15:30:45.592Z,92.80
2019-04-06T15:33:33.677Z,93.10
2019-04-06T15:36:17.334Z,91.70
2019-04-06T15:39:06.809Z,91.90
2019-04-06T15:41:55.775Z,91.90
2019-04-06T15:44:46.119Z,91.90
2019-04-06T15:47:44.739Z,92.20
2019-04-06T15:50:27.678Z,92.20
2019-04-06T15:53:17.249Z,92.70
2019-04-06T15:56:12.846Z,92.90
2019-04-06T15:59:05.006Z,92.90
2019-04-06T16:01:59.224Z,93.30
2019-04-06T16:04:34.988Z,92.90
2019-04-06T16:07:33.364Z,92.50
2019-04-06T16:10:12.095Z,92.30
2019-04-06T16:13:05.486Z,92.20
2019-04-06T16:16:03.886Z,92.20
2019-04-06T16:19:02.412Z,91.80
2019-04-06T16:21:46.125Z,91.90
2019-04-06T16:24:38.761Z,92.10
2019-04-06T16:27:34.390Z,92.10
2019-04-06T16:30:42.736Z,92.10
2019-04-06T16:33:50.034Z,92.20
2019-04-06T16:36:54.626Z,92.20
2019-04-06T16:39:46.613Z,92.20
2019-04-06T16:42:50.448Z,92.00
2019-04-06T16:45:26.232Z,92.10
2019-04-06T16:48:04.588Z,92.20
2019-04-06T16:50:57.031Z,92.20
2019-04-06T16:53:36.803Z,92.40
2019-04-06T16:56:27.461Z,92.40
2019-04-06T16:59:19.724Z,92.60
2019-04-06T17:02:07.747Z,92.60
2019-04-06T17:05:03.681Z,92.40
2019-04-06T17:07:54.663Z,92.40
2019-04-06T17:10:35.511Z,92.50
2019-04-06T17:13:28.042Z,92.30
2019-04-06T17:16:18.009Z,92.70
2019-04-06T17:18:57.821Z,92.50
2019-04-06T17:21:46.670Z,92.60
2019-04-06T17:24:31.788Z,92.60
2019-04-06T17:27:17.642Z,92.80
2019-04-06T17:30:13.260Z,92.80
2019-04-06T17:33:01.617Z,92.80
2019-04-06T17:35:39.115Z,92.90
2019-04-06T17:38:31.789Z,92.80
2019-04-06T17:41:18.799Z,93.30
2019-04-06T17:44:19.934Z,92.90
2019-04-06T17:47:08.101Z,92.90
2019-04-06T17:50:00.759Z,93.00
2019-04-06T17:52:51.470Z,93.10
2019-04-06T17:55:41.400Z,93.00
2019-04-06T17:58:42.992Z,93.00
2019-04-06T18:01:42.280Z,93.10
2019-04-06T18:04:31.789Z,93.10
2019-04-06T18:07:22.341Z,93.00
2019-04-06T18:10:09.397Z,93.10
2019-04-06T18:12:55.670Z,93.50
2019-04-06T18:15:26.271Z,93.10
2019-04-06T18:17:56.760Z,93.00
2019-04-06T18:20:30.374Z,93.10
2019-04-06T18:23:03.658Z,93.10
2019-04-06T18:25:34.170Z,93.50
2019-04-06T18:28:05.302Z,93.50
2019-04-06T18:30:36.087Z,93.20
2019-04-06T18:33:16.199Z,93.00
2019-04-06T18:35:46.704Z,93.10
2019-04-06T18:38:36.465Z,93.00
2019-04-06T18:41:07.003Z,93.10
2019-04-06T18:43:37.479Z,93.20
2019-04-06T18:46:07.901Z,93.10
2019-04-06T18:48:38.410Z,93.40
2019-04-06T18:51:08.841Z,93.00
2019-04-06T18:53:39.402Z,92.90
2019-04-06T18:56:09.892Z,93.00
2019-04-06T18:58:40.460Z,93.00
2019-04-06T19:01:11.206Z,93.00
2019-04-06T19:03:41.725Z,93.10
2019-04-06T19:06:12.370Z,93.10
2019-04-06T19:08:42.976Z,93.30
2019-04-06T19:11:13.485Z,93.30
2019-04-06T19:13:44.345Z,93.40
2019-04-06T19:16:17.891Z,93.40
2019-04-06T19:18:52.093Z,93.50
2019-04-06T19:21:22.909Z,93.50
2019-04-06T19:23:53.838Z,93.50
2019-04-06T19:26:24.367Z,93.50
2019-04-06T19:28:55.371Z,93.50
2019-04-06T19:31:26.139Z,93.50
2019-04-06T19:33:56.679Z,93.50
2019-04-06T19:36:27.453Z,93.50
2019-04-06T19:38:58.084Z,93.50
2019-04-06T19:41:28.880Z,93.50
2019-04-06T19:43:59.412Z,93.50
2019-04-06T19:46:30.935Z,93.50
2019-04-06T19:49:02.975Z,93.50
2019-04-06T19:51:33.576Z,93.50
2019-04-06T19:54:05.764Z,93.50
2019-04-06T19:56:36.492Z,93.40
2019-04-06T19:59:06.927Z,93.50
2019-04-06T20:01:37.607Z,93.50
2019-04-06T20:04:08.553Z,93.50
2019-04-06T20:06:38.991Z,93.50
2019-04-06T20:09:09.795Z,93.60
2019-04-06T20:11:40.220Z,93.60
2019-04-06T20:14:10.767Z,93.60
2019-04-06T20:16:41.248Z,93.60
2019-04-06T20:19:12.506Z,93.60
2019-04-06T20:21:43.072Z,93.60
2019-04-06T20:24:14.348Z,93.60
2019-04-06T20:26:45.237Z,93.60
2019-04-06T20:29:15.732Z,93.60
2019-04-06T20:31:46.254Z,93.60
2019-04-06T20:34:16.804Z,93.60
2019-04-06T20:36:47.328Z,93.70
2019-04-06T20:39:17.809Z,93.60
2019-04-06T20:41:48.330Z,93.60
2019-04-06T20:44:18.878Z,93.70
2019-04-06T20:46:49.556Z,93.70
2019-04-06T20:49:20.021Z,93.70
2019-04-06T20:51:50.684Z,93.70
2019-04-06T20:54:21.168Z,93.80
2019-04-06T20:56:58.180Z,93.90
2019-04-06T20:59:26.471Z,93.90
2019-04-06T21:01:56.940Z,93.90
2019-04-06T21:04:28.074Z,93.90
2019-04-06T21:06:58.771Z,94.00
2019-04-06T21:09:29.381Z,93.90
2019-04-06T21:12:00.291Z,94.00
2019-04-06T21:14:31.542Z,94.00
2019-04-06T21:17:02.535Z,94.00
2019-04-06T21:19:33.044Z,94.00
2019-04-06T21:22:05.819Z,93.90
2019-04-06T21:24:36.284Z,93.90
2019-04-06T21:27:06.710Z,93.90
2019-04-06T21:29:38.136Z,94.00
2019-04-06T21:32:08.664Z,93.90
2019-04-06T21:34:39.351Z,93.80
2019-04-06T21:37:09.860Z,93.80
2019-04-06T21:39:40.317Z,93.80
2019-04-06T21:42:10.749Z,93.70
2019-04-06T21:44:41.227Z,93.70
2019-04-06T21:47:12.141Z,93.70
2019-04-06T21:49:42.720Z,93.70
2019-04-06T21:52:13.172Z,93.70
2019-04-06T21:54:43.628Z,93.70
2019-04-06T21:57:14.218Z,93.80
2019-04-06T21:59:44.909Z,93.80
2019-04-06T22:02:15.821Z,93.90
2019-04-06T22:04:46.828Z,94.00
2019-04-06T22:07:17.789Z,94.00
2019-04-06T22:09:48.444Z,93.90
2019-04-06T22:12:18.885Z,93.90
2019-04-06T22:14:49.521Z,93.90
2019-04-06T22:17:19.975Z,94.30
2019-04-06T22:19:50.762Z,94.10
2019-04-06T22:22:21.251Z,93.90
2019-04-06T22:24:51.939Z,93.90
2019-04-06T22:27:22.398Z,93.90
2019-04-06T22:29:53.831Z,94.10
2019-04-06T22:32:24.495Z,94.10
2019-04-06T22:34:55.638Z,94.20
2019-04-06T22:37:26.075Z,94.40
2019-04-06T22:39:57.009Z,94.50
2019-04-06T22:42:27.559Z,94.70
2019-04-06T22:44:58.064Z,94.80
2019-04-06T22:47:29.051Z,94.80
2019-04-06T22:50:00.434Z,95.00
2019-04-06T22:52:31.013Z,95.10
2019-04-06T22:55:01.859Z,95.10
2019-04-06T22:57:32.908Z,95.20
2019-04-06T23:00:04.503Z,95.10
2019-04-06T23:02:43.995Z,95.40
2019-04-06T23:05:36.175Z,95.40
2019-04-06T23:08:06.599Z,95.50
2019-04-06T23:10:37.295Z,95.40
2019-04-06T23:13:07.784Z,95.50
2019-04-06T23:15:38.399Z,95.60
2019-04-06T23:18:08.860Z,95.70
2019-04-06T23:20:39.326Z,95.70
2019-04-06T23:23:09.822Z,95.80
2019-04-06T23:25:40.247Z,95.70
2019-04-06T23:28:10.701Z,95.70
2019-04-06T23:30:41.209Z,95.90
2019-04-06T23:33:12.053Z,96.00
2019-04-06T23:35:42.560Z,96.10
2019-04-06T23:38:13.284Z,96.10
2019-04-06T23:40:44.271Z,96.20
2019-04-06T23:43:16.232Z,96.30
2019-04-06T23:45:47.019Z,96.30
2019-04-06T23:48:17.644Z,96.30
2019-04-06T23:50:48.372Z,96.30
2019-04-06T23:53:19.170Z,96.20
2019-04-06T23:55:50.018Z,96.20
2019-04-06T23:58:20.996Z,96.20
